sensor_id;sensor_type;location;lat;lon;timestamp;pressure;altitude;pressure_sealevel;temperature
20289;BMP180;10303;51.960;8.372;2024-01-15T00:00:19;98812.00;;;3.70
20289;BMP180;10303;51.960;8.372;2024-01-15T00:02:45;98831.00;;;3.70
20289;BMP180;10303;51.960;8.372;2024-01-15T00:05:11;98828.00;;;3.80
20289;BMP180;10303;51.960;8.372;2024-01-15T00:07:36;98822.00;;;3.80
20289;BMP180;10303;51.960;8.372;2024-01-15T00:10:03;98807.00;;;3.80
20289;BMP180;10303;51.960;8.372;2024-01-15T00:12:29;98818.00;;;3.90
20289;BMP180;10303;51.960;8.372;2024-01-15T00:14:54;98820.00;;;3.90
20289;BMP180;10303;51.960;8.372;2024-01-15T00:17:21;98813.00;;;3.80
20289;BMP180;10303;51.960;8.372;2024-01-15T00:19:47;98802.00;;;3.80
20289;BMP180;10303;51.960;8.372;2024-01-15T00:22:14;98811.00;;;3.80
20289;BMP180;10303;51.960;8.372;2024-01-15T00:24:40;98809.00;;;3.90
20289;BMP180;10303;51.960;8.372;2024-01-15T00:27:06;98804.00;;;3.90
20289;BMP180;10303;51.960;8.372;2024-01-15T00:29:32;98800.00;;;3.90
20289;BMP180;10303;51.960;8.372;2024-01-15T00:31:58;98801.00;;;3.80
20289;BMP180;10303;51.960;8.372;2024-01-15T00:34:24;98803.00;;;3.80
20289;BMP180;10303;51.960;8.372;2024-01-15T00:36:50;98793.00;;;3.90
20289;BMP180;10303;51.960;8.372;2024-01-15T00:39:16;98808.00;;;3.80
20289;BMP180;10303;51.960;8.372;2024-01-15T00:41:42;98807.00;;;3.70
20289;BMP180;10303;51.960;8.372;2024-01-15T00:44:08;98797.00;;;3.70
20289;BMP180;10303;51.960;8.372;2024-01-15T00:46:45;98802.00;;;3.70
20289;BMP180;10303;51.960;8.372;2024-01-15T00:49:13;98794.00;;;3.70
20289;BMP180;10303;51.960;8.372;2024-01-15T00:51:39;98793.00;;;3.40
20289;BMP180;10303;51.960;8.372;2024-01-15T00:54:05;98803.00;;;3.50
20289;BMP180;10303;51.960;8.372;2024-01-15T00:56:32;98800.00;;;3.60
20289;BMP180;10303;51.960;8.372;2024-01-15T00:58:58;98780.00;;;3.50
20289;BMP180;10303;51.960;8.372;2024-01-15T01:01:24;98801.00;;;3.50
20289;BMP180;10303;51.960;8.372;2024-01-15T01:03:50;98806.00;;;3.50
20289;BMP180;10303;51.960;8.372;2024-01-15T01:06:16;98799.00;;;3.60
20289;BMP180;10303;51.960;8.372;2024-01-15T01:08:41;98794.00;;;3.70
20289;BMP180;10303;51.960;8.372;2024-01-15T01:11:07;98794.00;;;3.70
20289;BMP180;10303;51.960;8.372;2024-01-15T01:13:33;98792.00;;;3.70
20289;BMP180;10303;51.960;8.372;2024-01-15T01:15:59;98770.00;;;3.90
20289;BMP180;10303;51.960;8.372;2024-01-15T01:18:25;98791.00;;;3.80
20289;BMP180;10303;51.960;8.372;2024-01-15T01:20:51;98785.00;;;3.90
20289;BMP180;10303;51.960;8.372;2024-01-15T01:23:17;98781.00;;;4.00
20289;BMP180;10303;51.960;8.372;2024-01-15T01:25:43;98785.00;;;4.00
20289;BMP180;10303;51.960;8.372;2024-01-15T01:28:09;98784.00;;;4.00
20289;BMP180;10303;51.960;8.372;2024-01-15T01:30:35;98788.00;;;4.00
20289;BMP180;10303;51.960;8.372;2024-01-15T01:33:00;98785.00;;;4.00
20289;BMP180;10303;51.960;8.372;2024-01-15T01:35:26;98788.00;;;3.90
20289;BMP180;10303;51.960;8.372;2024-01-15T01:37:52;98796.00;;;3.70
20289;BMP180;10303;51.960;8.372;2024-01-15T01:40:18;98784.00;;;3.60
20289;BMP180;10303;51.960;8.372;2024-01-15T01:42:44;98776.00;;;3.80
20289;BMP180;10303;51.960;8.372;2024-01-15T01:45:11;98788.00;;;3.90
20289;BMP180;10303;51.960;8.372;2024-01-15T01:47:38;98782.00;;;3.90
20289;BMP180;10303;51.960;8.372;2024-01-15T01:50:05;98775.00;;;3.90
20289;BMP180;10303;51.960;8.372;2024-01-15T01:52:31;98767.00;;;4.00
20289;BMP180;10303;51.960;8.372;2024-01-15T01:55:00;98765.00;;;3.90
20289;BMP180;10303;51.960;8.372;2024-01-15T01:57:29;98778.00;;;3.90
20289;BMP180;10303;51.960;8.372;2024-01-15T01:59:56;98772.00;;;3.90
20289;BMP180;10303;51.960;8.372;2024-01-15T02:02:24;98763.00;;;4.00
20289;BMP180;10303;51.960;8.372;2024-01-15T02:04:50;98761.00;;;4.00
20289;BMP180;10303;51.960;8.372;2024-01-15T02:07:16;98758.00;;;4.10
20289;BMP180;10303;51.960;8.372;2024-01-15T02:09:45;98750.00;;;4.00
20289;BMP180;10303;51.960;8.372;2024-01-15T02:12:11;98755.00;;;4.00
20289;BMP180;10303;51.960;8.372;2024-01-15T02:14:37;98756.00;;;4.00
20289;BMP180;10303;51.960;8.372;2024-01-15T02:17:03;98748.00;;;4.00
20289;BMP180;10303;51.960;8.372;2024-01-15T02:19:29;98745.00;;;4.10
20289;BMP180;10303;51.960;8.372;2024-01-15T02:21:55;98760.00;;;4.00
20289;BMP180;10303;51.960;8.372;2024-01-15T02:24:21;98752.00;;;3.90
20289;BMP180;10303;51.960;8.372;2024-01-15T02:26:48;98751.00;;;3.90
20289;BMP180;10303;51.960;8.372;2024-01-15T02:29:14;98756.00;;;4.00
20289;BMP180;10303;51.960;8.372;2024-01-15T02:31:41;98738.00;;;4.00
20289;BMP180;10303;51.960;8.372;2024-01-15T02:34:07;98756.00;;;4.00
20289;BMP180;10303;51.960;8.372;2024-01-15T02:36:33;98766.00;;;4.10
20289;BMP180;10303;51.960;8.372;2024-01-15T02:38:59;98743.00;;;3.90
20289;BMP180;10303;51.960;8.372;2024-01-15T02:41:25;98741.00;;;3.90
20289;BMP180;10303;51.960;8.372;2024-01-15T02:43:51;98752.00;;;3.90
20289;BMP180;10303;51.960;8.372;2024-01-15T02:46:17;98760.00;;;3.90
20289;BMP180;10303;51.960;8.372;2024-01-15T02:48:43;98748.00;;;3.90
20289;BMP180;10303;51.960;8.372;2024-01-15T02:51:09;98744.00;;;3.80
20289;BMP180;10303;51.960;8.372;2024-01-15T02:53:36;98767.00;;;3.90
20289;BMP180;10303;51.960;8.372;2024-01-15T02:56:03;98751.00;;;4.00
20289;BMP180;10303;51.960;8.372;2024-01-15T02:58:29;98747.00;;;4.00
20289;BMP180;10303;51.960;8.372;2024-01-15T03:00:55;98749.00;;;3.90
20289;BMP180;10303;51.960;8.372;2024-01-15T03:03:21;98750.00;;;3.90
20289;BMP180;10303;51.960;8.372;2024-01-15T03:05:47;98758.00;;;4.00
20289;BMP180;10303;51.960;8.372;2024-01-15T03:08:13;98756.00;;;3.90
20289;BMP180;10303;51.960;8.372;2024-01-15T03:10:39;98774.00;;;3.80
20289;BMP180;10303;51.960;8.372;2024-01-15T03:13:05;98748.00;;;3.80
20289;BMP180;10303;51.960;8.372;2024-01-15T03:15:31;98749.00;;;3.90
20289;BMP180;10303;51.960;8.372;2024-01-15T03:17:57;98755.00;;;3.90
20289;BMP180;10303;51.960;8.372;2024-01-15T03:20:23;98751.00;;;4.00
20289;BMP180;10303;51.960;8.372;2024-01-15T03:22:49;98752.00;;;4.00
20289;BMP180;10303;51.960;8.372;2024-01-15T03:25:15;98755.00;;;4.00
20289;BMP180;10303;51.960;8.372;2024-01-15T03:27:41;98760.00;;;3.90
20289;BMP180;10303;51.960;8.372;2024-01-15T03:30:08;98750.00;;;4.00
20289;BMP180;10303;51.960;8.372;2024-01-15T03:32:34;98753.00;;;4.10
20289;BMP180;10303;51.960;8.372;2024-01-15T03:35:00;98740.00;;;4.10
20289;BMP180;10303;51.960;8.372;2024-01-15T03:37:26;98734.00;;;3.90
20289;BMP180;10303;51.960;8.372;2024-01-15T03:39:52;98766.00;;;3.80
20289;BMP180;10303;51.960;8.372;2024-01-15T03:42:17;98753.00;;;3.90
20289;BMP180;10303;51.960;8.372;2024-01-15T03:44:43;98742.00;;;3.90
20289;BMP180;10303;51.960;8.372;2024-01-15T03:47:09;98739.00;;;3.90
20289;BMP180;10303;51.960;8.372;2024-01-15T03:49:35;98746.00;;;3.90
20289;BMP180;10303;51.960;8.372;2024-01-15T03:52:01;98740.00;;;4.10
20289;BMP180;10303;51.960;8.372;2024-01-15T03:54:27;98730.00;;;4.00
20289;BMP180;10303;51.960;8.372;2024-01-15T03:56:53;98738.00;;;4.10
20289;BMP180;10303;51.960;8.372;2024-01-15T03:59:19;98757.00;;;3.70
20289;BMP180;10303;51.960;8.372;2024-01-15T04:01:51;98737.00;;;3.80
20289;BMP180;10303;51.960;8.372;2024-01-15T04:04:17;98759.00;;;3.90
20289;BMP180;10303;51.960;8.372;2024-01-15T04:06:44;98748.00;;;3.80
20289;BMP180;10303;51.960;8.372;2024-01-15T04:09:11;98752.00;;;3.70
20289;BMP180;10303;51.960;8.372;2024-01-15T04:11:37;98756.00;;;3.80
20289;BMP180;10303;51.960;8.372;2024-01-15T04:14:03;98763.00;;;3.80
20289;BMP180;10303;51.960;8.372;2024-01-15T04:16:29;98759.00;;;3.70
20289;BMP180;10303;51.960;8.372;2024-01-15T04:18:55;98752.00;;;3.50
20289;BMP180;10303;51.960;8.372;2024-01-15T04:21:20;98751.00;;;3.60
20289;BMP180;10303;51.960;8.372;2024-01-15T04:23:46;98739.00;;;3.70
20289;BMP180;10303;51.960;8.372;2024-01-15T04:26:12;98742.00;;;3.60
20289;BMP180;10303;51.960;8.372;2024-01-15T04:28:38;98740.00;;;3.40
20289;BMP180;10303;51.960;8.372;2024-01-15T04:31:04;98735.00;;;3.60
20289;BMP180;10303;51.960;8.372;2024-01-15T04:33:30;98729.00;;;3.70
20289;BMP180;10303;51.960;8.372;2024-01-15T04:35:56;98733.00;;;3.70
20289;BMP180;10303;51.960;8.372;2024-01-15T04:38:22;98737.00;;;3.70
20289;BMP180;10303;51.960;8.372;2024-01-15T04:40:48;98736.00;;;3.60
20289;BMP180;10303;51.960;8.372;2024-01-15T04:43:13;98726.00;;;3.70
20289;BMP180;10303;51.960;8.372;2024-01-15T04:45:39;98723.00;;;3.70
20289;BMP180;10303;51.960;8.372;2024-01-15T04:48:05;98719.00;;;3.80
20289;BMP180;10303;51.960;8.372;2024-01-15T04:50:31;98728.00;;;3.70
20289;BMP180;10303;51.960;8.372;2024-01-15T04:52:57;98720.00;;;3.70
20289;BMP180;10303;51.960;8.372;2024-01-15T04:55:23;98722.00;;;3.70
20289;BMP180;10303;51.960;8.372;2024-01-15T04:57:49;98715.00;;;3.70
20289;BMP180;10303;51.960;8.372;2024-01-15T05:00:15;98720.00;;;3.80
20289;BMP180;10303;51.960;8.372;2024-01-15T05:02:41;98713.00;;;3.80
20289;BMP180;10303;51.960;8.372;2024-01-15T05:05:07;98710.00;;;3.80
20289;BMP180;10303;51.960;8.372;2024-01-15T05:07:33;98706.00;;;3.80
20289;BMP180;10303;51.960;8.372;2024-01-15T05:09:59;98692.00;;;3.70
20289;BMP180;10303;51.960;8.372;2024-01-15T05:12:25;98703.00;;;3.70
20289;BMP180;10303;51.960;8.372;2024-01-15T05:14:51;98690.00;;;3.60
20289;BMP180;10303;51.960;8.372;2024-01-15T05:17:17;98700.00;;;3.70
20289;BMP180;10303;51.960;8.372;2024-01-15T05:19:43;98696.00;;;3.40
20289;BMP180;10303;51.960;8.372;2024-01-15T05:22:09;98688.00;;;3.30
20289;BMP180;10303;51.960;8.372;2024-01-15T05:24:35;98710.00;;;3.40
20289;BMP180;10303;51.960;8.372;2024-01-15T05:27:00;98690.00;;;3.60
20289;BMP180;10303;51.960;8.372;2024-01-15T05:29:26;98702.00;;;3.50
20289;BMP180;10303;51.960;8.372;2024-01-15T05:31:52;98696.00;;;3.50
20289;BMP180;10303;51.960;8.372;2024-01-15T05:34:18;98695.00;;;3.60
20289;BMP180;10303;51.960;8.372;2024-01-15T05:36:44;98709.00;;;3.80
20289;BMP180;10303;51.960;8.372;2024-01-15T05:39:13;98711.00;;;3.80
20289;BMP180;10303;51.960;8.372;2024-01-15T05:41:39;98706.00;;;3.80
20289;BMP180;10303;51.960;8.372;2024-01-15T05:44:05;98696.00;;;3.80
20289;BMP180;10303;51.960;8.372;2024-01-15T05:46:31;98701.00;;;3.80
20289;BMP180;10303;51.960;8.372;2024-01-15T05:48:57;98682.00;;;3.80
20289;BMP180;10303;51.960;8.372;2024-01-15T05:51:23;98686.00;;;3.80
20289;BMP180;10303;51.960;8.372;2024-01-15T05:53:49;98690.00;;;3.60
20289;BMP180;10303;51.960;8.372;2024-01-15T05:56:15;98708.00;;;3.70
20289;BMP180;10303;51.960;8.372;2024-01-15T05:58:41;98712.00;;;3.70
20289;BMP180;10303;51.960;8.372;2024-01-15T06:01:07;98697.00;;;3.60
20289;BMP180;10303;51.960;8.372;2024-01-15T06:03:33;98693.00;;;3.70
20289;BMP180;10303;51.960;8.372;2024-01-15T06:05:59;98690.00;;;3.50
20289;BMP180;10303;51.960;8.372;2024-01-15T06:08:25;98692.00;;;3.60
20289;BMP180;10303;51.960;8.372;2024-01-15T06:10:53;98694.00;;;3.70
20289;BMP180;10303;51.960;8.372;2024-01-15T06:13:20;98691.00;;;3.70
20289;BMP180;10303;51.960;8.372;2024-01-15T06:15:46;98695.00;;;3.70
20289;BMP180;10303;51.960;8.372;2024-01-15T06:18:11;98694.00;;;3.70
20289;BMP180;10303;51.960;8.372;2024-01-15T06:20:37;98678.00;;;3.50
20289;BMP180;10303;51.960;8.372;2024-01-15T06:23:04;98690.00;;;3.60
20289;BMP180;10303;51.960;8.372;2024-01-15T06:25:30;98697.00;;;3.70
20289;BMP180;10303;51.960;8.372;2024-01-15T06:27:56;98698.00;;;3.80
20289;BMP180;10303;51.960;8.372;2024-01-15T06:30:22;98694.00;;;3.80
20289;BMP180;10303;51.960;8.372;2024-01-15T06:32:47;98696.00;;;3.90
20289;BMP180;10303;51.960;8.372;2024-01-15T06:35:13;98681.00;;;3.90
20289;BMP180;10303;51.960;8.372;2024-01-15T06:37:39;98696.00;;;3.50
20289;BMP180;10303;51.960;8.372;2024-01-15T06:40:06;98700.00;;;3.60
20289;BMP180;10303;51.960;8.372;2024-01-15T06:42:32;98691.00;;;3.70
20289;BMP180;10303;51.960;8.372;2024-01-15T06:44:58;98688.00;;;3.70
20289;BMP180;10303;51.960;8.372;2024-01-15T06:47:24;98690.00;;;3.80
20289;BMP180;10303;51.960;8.372;2024-01-15T06:49:50;98694.00;;;3.70
20289;BMP180;10303;51.960;8.372;2024-01-15T06:52:17;98701.00;;;3.80
20289;BMP180;10303;51.960;8.372;2024-01-15T06:54:43;98701.00;;;3.80
20289;BMP180;10303;51.960;8.372;2024-01-15T06:57:09;98689.00;;;3.90
20289;BMP180;10303;51.960;8.372;2024-01-15T06:59:35;98699.00;;;3.80
20289;BMP180;10303;51.960;8.372;2024-01-15T07:02:01;98688.00;;;3.70
20289;BMP180;10303;51.960;8.372;2024-01-15T07:04:27;98708.00;;;3.60
20289;BMP180;10303;51.960;8.372;2024-01-15T07:06:53;98705.00;;;3.50
20289;BMP180;10303;51.960;8.372;2024-01-15T07:09:19;98709.00;;;3.50
20289;BMP180;10303;51.960;8.372;2024-01-15T07:11:46;98715.00;;;3.40
20289;BMP180;10303;51.960;8.372;2024-01-15T07:14:12;98708.00;;;3.50
20289;BMP180;10303;51.960;8.372;2024-01-15T07:16:38;98721.00;;;3.50
20289;BMP180;10303;51.960;8.372;2024-01-15T07:19:05;98705.00;;;3.50
20289;BMP180;10303;51.960;8.372;2024-01-15T07:21:31;98710.00;;;3.40
20289;BMP180;10303;51.960;8.372;2024-01-15T07:23:57;98712.00;;;3.40
20289;BMP180;10303;51.960;8.372;2024-01-15T07:26:23;98708.00;;;3.50
20289;BMP180;10303;51.960;8.372;2024-01-15T07:28:49;98701.00;;;3.50
20289;BMP180;10303;51.960;8.372;2024-01-15T07:31:17;98722.00;;;3.60
20289;BMP180;10303;51.960;8.372;2024-01-15T07:33:43;98721.00;;;3.40
20289;BMP180;10303;51.960;8.372;2024-01-15T07:36:09;98713.00;;;3.50
20289;BMP180;10303;51.960;8.372;2024-01-15T07:38:35;98684.00;;;3.50
20289;BMP180;10303;51.960;8.372;2024-01-15T07:41:00;98716.00;;;3.50
20289;BMP180;10303;51.960;8.372;2024-01-15T07:43:26;98711.00;;;3.60
20289;BMP180;10303;51.960;8.372;2024-01-15T07:45:53;98717.00;;;3.60
20289;BMP180;10303;51.960;8.372;2024-01-15T07:48:19;98719.00;;;3.70
20289;BMP180;10303;51.960;8.372;2024-01-15T07:50:46;98722.00;;;3.90
20289;BMP180;10303;51.960;8.372;2024-01-15T07:53:12;98717.00;;;3.90
20289;BMP180;10303;51.960;8.372;2024-01-15T07:55:38;98715.00;;;3.80
20289;BMP180;10303;51.960;8.372;2024-01-15T07:58:04;98715.00;;;3.80
20289;BMP180;10303;51.960;8.372;2024-01-15T08:00:30;98728.00;;;3.90
20289;BMP180;10303;51.960;8.372;2024-01-15T08:02:57;98724.00;;;3.80
20289;BMP180;10303;51.960;8.372;2024-01-15T08:05:23;98727.00;;;3.80
20289;BMP180;10303;51.960;8.372;2024-01-15T08:07:49;98733.00;;;3.80
20289;BMP180;10303;51.960;8.372;2024-01-15T08:10:16;98726.00;;;3.80
20289;BMP180;10303;51.960;8.372;2024-01-15T08:12:42;98717.00;;;3.90
20289;BMP180;10303;51.960;8.372;2024-01-15T08:15:08;98728.00;;;3.80
20289;BMP180;10303;51.960;8.372;2024-01-15T08:17:34;98731.00;;;3.90
20289;BMP180;10303;51.960;8.372;2024-01-15T08:20:00;98725.00;;;3.90
20289;BMP180;10303;51.960;8.372;2024-01-15T08:22:27;98719.00;;;3.70
20289;BMP180;10303;51.960;8.372;2024-01-15T08:24:53;98731.00;;;3.70
20289;BMP180;10303;51.960;8.372;2024-01-15T08:27:21;98720.00;;;3.70
20289;BMP180;10303;51.960;8.372;2024-01-15T08:29:47;98732.00;;;3.80
20289;BMP180;10303;51.960;8.372;2024-01-15T08:32:13;98729.00;;;3.90
20289;BMP180;10303;51.960;8.372;2024-01-15T08:34:41;98715.00;;;3.90
20289;BMP180;10303;51.960;8.372;2024-01-15T08:37:12;98726.00;;;3.90
20289;BMP180;10303;51.960;8.372;2024-01-15T08:39:37;98726.00;;;3.90
20289;BMP180;10303;51.960;8.372;2024-01-15T08:42:06;98719.00;;;3.90
20289;BMP180;10303;51.960;8.372;2024-01-15T08:44:32;98714.00;;;3.90
20289;BMP180;10303;51.960;8.372;2024-01-15T08:46:58;98722.00;;;3.80
20289;BMP180;10303;51.960;8.372;2024-01-15T08:49:24;98724.00;;;3.90
20289;BMP180;10303;51.960;8.372;2024-01-15T08:51:50;98719.00;;;3.90
20289;BMP180;10303;51.960;8.372;2024-01-15T08:54:16;98723.00;;;4.00
20289;BMP180;10303;51.960;8.372;2024-01-15T08:56:43;98720.00;;;4.00
20289;BMP180;10303;51.960;8.372;2024-01-15T08:59:09;98720.00;;;3.90
20289;BMP180;10303;51.960;8.372;2024-01-15T09:01:38;98714.00;;;3.90
20289;BMP180;10303;51.960;8.372;2024-01-15T09:04:05;98717.00;;;3.70
20289;BMP180;10303;51.960;8.372;2024-01-15T09:06:30;98727.00;;;3.80
20289;BMP180;10303;51.960;8.372;2024-01-15T09:08:56;98732.00;;;3.70
20289;BMP180;10303;51.960;8.372;2024-01-15T09:11:22;98720.00;;;3.70
20289;BMP180;10303;51.960;8.372;2024-01-15T09:13:49;98714.00;;;3.70
20289;BMP180;10303;51.960;8.372;2024-01-15T09:16:14;98737.00;;;3.80
20289;BMP180;10303;51.960;8.372;2024-01-15T09:18:40;98740.00;;;3.80
20289;BMP180;10303;51.960;8.372;2024-01-15T09:21:06;98739.00;;;3.80
20289;BMP180;10303;51.960;8.372;2024-01-15T09:23:32;98720.00;;;3.70
20289;BMP180;10303;51.960;8.372;2024-01-15T09:25:58;98712.00;;;3.60
20289;BMP180;10303;51.960;8.372;2024-01-15T09:28:25;98722.00;;;3.50
20289;BMP180;10303;51.960;8.372;2024-01-15T09:30:51;98715.00;;;3.60
20289;BMP180;10303;51.960;8.372;2024-01-15T09:33:17;98706.00;;;3.80
20289;BMP180;10303;51.960;8.372;2024-01-15T09:35:43;98727.00;;;3.90
20289;BMP180;10303;51.960;8.372;2024-01-15T09:38:09;98719.00;;;3.90
20289;BMP180;10303;51.960;8.372;2024-01-15T09:40:38;98721.00;;;3.80
20289;BMP180;10303;51.960;8.372;2024-01-15T09:43:04;98730.00;;;3.90
20289;BMP180;10303;51.960;8.372;2024-01-15T09:45:31;98731.00;;;4.00
20289;BMP180;10303;51.960;8.372;2024-01-15T09:47:57;98719.00;;;4.10
20289;BMP180;10303;51.960;8.372;2024-01-15T09:50:23;98723.00;;;4.10
20289;BMP180;10303;51.960;8.372;2024-01-15T09:52:49;98721.00;;;4.10
20289;BMP180;10303;51.960;8.372;2024-01-15T09:55:17;98725.00;;;4.00
20289;BMP180;10303;51.960;8.372;2024-01-15T09:57:44;98710.00;;;4.10
20289;BMP180;10303;51.960;8.372;2024-01-15T10:00:12;98726.00;;;4.00
20289;BMP180;10303;51.960;8.372;2024-01-15T10:02:38;98714.00;;;4.20
20289;BMP180;10303;51.960;8.372;2024-01-15T10:05:04;98721.00;;;4.30
20289;BMP180;10303;51.960;8.372;2024-01-15T10:07:35;98722.00;;;4.20
20289;BMP180;10303;51.960;8.372;2024-01-15T10:10:01;98712.00;;;4.10
20289;BMP180;10303;51.960;8.372;2024-01-15T10:12:29;98717.00;;;4.00
20289;BMP180;10303;51.960;8.372;2024-01-15T10:14:56;98713.00;;;4.10
20289;BMP180;10303;51.960;8.372;2024-01-15T10:17:24;98710.00;;;3.90
20289;BMP180;10303;51.960;8.372;2024-01-15T10:19:50;98716.00;;;4.00
20289;BMP180;10303;51.960;8.372;2024-01-15T10:22:17;98725.00;;;4.10
20289;BMP180;10303;51.960;8.372;2024-01-15T10:24:46;98715.00;;;4.00
20289;BMP180;10303;51.960;8.372;2024-01-15T10:27:15;98719.00;;;4.00
20289;BMP180;10303;51.960;8.372;2024-01-15T10:29:42;98724.00;;;4.10
20289;BMP180;10303;51.960;8.372;2024-01-15T10:32:08;98722.00;;;4.10
20289;BMP180;10303;51.960;8.372;2024-01-15T10:34:38;98725.00;;;4.20
20289;BMP180;10303;51.960;8.372;2024-01-15T10:37:08;98717.00;;;4.20
20289;BMP180;10303;51.960;8.372;2024-01-15T10:39:35;98710.00;;;4.10
20289;BMP180;10303;51.960;8.372;2024-01-15T10:42:02;98722.00;;;4.10
20289;BMP180;10303;51.960;8.372;2024-01-15T10:44:29;98694.00;;;4.10
20289;BMP180;10303;51.960;8.372;2024-01-15T10:46:56;98721.00;;;4.20
20289;BMP180;10303;51.960;8.372;2024-01-15T10:49:23;98703.00;;;4.20
20289;BMP180;10303;51.960;8.372;2024-01-15T10:51:53;98694.00;;;4.10
20289;BMP180;10303;51.960;8.372;2024-01-15T10:54:20;98703.00;;;4.20
20289;BMP180;10303;51.960;8.372;2024-01-15T10:56:47;98706.00;;;4.20
20289;BMP180;10303;51.960;8.372;2024-01-15T10:59:13;98709.00;;;4.30
20289;BMP180;10303;51.960;8.372;2024-01-15T11:01:42;98708.00;;;4.20
20289;BMP180;10303;51.960;8.372;2024-01-15T11:04:08;98703.00;;;4.20
20289;BMP180;10303;51.960;8.372;2024-01-15T11:06:47;98706.00;;;4.20
20289;BMP180;10303;51.960;8.372;2024-01-15T11:09:15;98698.00;;;4.40
20289;BMP180;10303;51.960;8.372;2024-01-15T11:11:47;98702.00;;;4.30
20289;BMP180;10303;51.960;8.372;2024-01-15T11:15:00;98696.00;;;4.50
20289;BMP180;10303;51.960;8.372;2024-01-15T11:17:23;98695.00;;;4.50
20289;BMP180;10303;51.960;8.372;2024-01-15T11:19:50;98703.00;;;4.60
20289;BMP180;10303;51.960;8.372;2024-01-15T11:25:14;98696.00;;;4.50
20289;BMP180;10303;51.960;8.372;2024-01-15T11:27:45;98704.00;;;4.60
20289;BMP180;10303;51.960;8.372;2024-01-15T11:30:13;98699.00;;;4.50
20289;BMP180;10303;51.960;8.372;2024-01-15T11:32:40;98696.00;;;4.50
20289;BMP180;10303;51.960;8.372;2024-01-15T11:35:10;98685.00;;;4.40
20289;BMP180;10303;51.960;8.372;2024-01-15T11:37:57;98692.00;;;4.40
20289;BMP180;10303;51.960;8.372;2024-01-15T11:42:58;98697.00;;;4.60
20289;BMP180;10303;51.960;8.372;2024-01-15T11:45:25;98687.00;;;4.40
20289;BMP180;10303;51.960;8.372;2024-01-15T11:48:14;98699.00;;;4.40
20289;BMP180;10303;51.960;8.372;2024-01-15T11:50:46;98695.00;;;4.40
20289;BMP180;10303;51.960;8.372;2024-01-15T11:53:27;98699.00;;;4.40
20289;BMP180;10303;51.960;8.372;2024-01-15T11:55:58;98696.00;;;4.40
20289;BMP180;10303;51.960;8.372;2024-01-15T11:58:25;98693.00;;;4.40
20289;BMP180;10303;51.960;8.372;2024-01-15T12:00:52;98688.00;;;4.30
20289;BMP180;10303;51.960;8.372;2024-01-15T12:03:22;98694.00;;;4.40
20289;BMP180;10303;51.960;8.372;2024-01-15T12:05:48;98688.00;;;4.30
20289;BMP180;10303;51.960;8.372;2024-01-15T12:08:21;98703.00;;;4.40
20289;BMP180;10303;51.960;8.372;2024-01-15T12:10:47;98699.00;;;4.30
20289;BMP180;10303;51.960;8.372;2024-01-15T12:13:14;98691.00;;;4.40
20289;BMP180;10303;51.960;8.372;2024-01-15T12:15:46;98693.00;;;4.20
20289;BMP180;10303;51.960;8.372;2024-01-15T12:18:15;98698.00;;;4.20
20289;BMP180;10303;51.960;8.372;2024-01-15T12:20:42;98698.00;;;4.10
20289;BMP180;10303;51.960;8.372;2024-01-15T12:23:09;98686.00;;;4.30
20289;BMP180;10303;51.960;8.372;2024-01-15T12:25:39;98678.00;;;4.20
20289;BMP180;10303;51.960;8.372;2024-01-15T12:28:06;98674.00;;;4.20
20289;BMP180;10303;51.960;8.372;2024-01-15T12:30:34;98681.00;;;4.30
20289;BMP180;10303;51.960;8.372;2024-01-15T12:33:06;98680.00;;;4.40
20289;BMP180;10303;51.960;8.372;2024-01-15T12:35:36;98690.00;;;4.40
20289;BMP180;10303;51.960;8.372;2024-01-15T12:38:03;98688.00;;;4.30
20289;BMP180;10303;51.960;8.372;2024-01-15T12:40:31;98702.00;;;4.10
20289;BMP180;10303;51.960;8.372;2024-01-15T12:43:01;98689.00;;;4.20
20289;BMP180;10303;51.960;8.372;2024-01-15T12:45:27;98699.00;;;4.20
20289;BMP180;10303;51.960;8.372;2024-01-15T12:47:55;98691.00;;;4.30
20289;BMP180;10303;51.960;8.372;2024-01-15T12:50:24;98694.00;;;4.30
20289;BMP180;10303;51.960;8.372;2024-01-15T12:52:52;98686.00;;;4.40
20289;BMP180;10303;51.960;8.372;2024-01-15T12:55:18;98699.00;;;4.30
20289;BMP180;10303;51.960;8.372;2024-01-15T12:57:44;98692.00;;;4.50
20289;BMP180;10303;51.960;8.372;2024-01-15T13:00:12;98696.00;;;4.40
20289;BMP180;10303;51.960;8.372;2024-01-15T13:02:42;98694.00;;;4.50
20289;BMP180;10303;51.960;8.372;2024-01-15T13:05:09;98697.00;;;4.60
20289;BMP180;10303;51.960;8.372;2024-01-15T13:07:39;98685.00;;;4.50
20289;BMP180;10303;51.960;8.372;2024-01-15T13:10:06;98689.00;;;4.60
20289;BMP180;10303;51.960;8.372;2024-01-15T13:12:34;98682.00;;;4.70
20289;BMP180;10303;51.960;8.372;2024-01-15T13:15:01;98679.00;;;4.70
20289;BMP180;10303;51.960;8.372;2024-01-15T13:17:29;98684.00;;;4.70
20289;BMP180;10303;51.960;8.372;2024-01-15T13:19:55;98673.00;;;4.40
20289;BMP180;10303;51.960;8.372;2024-01-15T13:22:21;98688.00;;;4.40
20289;BMP180;10303;51.960;8.372;2024-01-15T13:24:47;98687.00;;;4.50
20289;BMP180;10303;51.960;8.372;2024-01-15T13:27:13;98681.00;;;4.60
20289;BMP180;10303;51.960;8.372;2024-01-15T13:29:39;98699.00;;;4.60
20289;BMP180;10303;51.960;8.372;2024-01-15T13:32:05;98683.00;;;4.50
20289;BMP180;10303;51.960;8.372;2024-01-15T13:34:31;98700.00;;;4.30
20289;BMP180;10303;51.960;8.372;2024-01-15T13:36:57;98690.00;;;4.30
20289;BMP180;10303;51.960;8.372;2024-01-15T13:39:23;98695.00;;;4.30
20289;BMP180;10303;51.960;8.372;2024-01-15T13:41:49;98685.00;;;4.10
20289;BMP180;10303;51.960;8.372;2024-01-15T13:44:15;98706.00;;;4.30
20289;BMP180;10303;51.960;8.372;2024-01-15T13:46:41;98696.00;;;4.30
20289;BMP180;10303;51.960;8.372;2024-01-15T13:49:07;98704.00;;;4.30
20289;BMP180;10303;51.960;8.372;2024-01-15T13:51:35;98710.00;;;4.20
20289;BMP180;10303;51.960;8.372;2024-01-15T13:54:02;98703.00;;;4.20
20289;BMP180;10303;51.960;8.372;2024-01-15T13:56:30;98689.00;;;4.10
20289;BMP180;10303;51.960;8.372;2024-01-15T13:58:59;98704.00;;;3.90
20289;BMP180;10303;51.960;8.372;2024-01-15T14:01:27;98704.00;;;3.90
20289;BMP180;10303;51.960;8.372;2024-01-15T14:03:54;98701.00;;;3.90
20289;BMP180;10303;51.960;8.372;2024-01-15T14:06:20;98691.00;;;3.70
20289;BMP180;10303;51.960;8.372;2024-01-15T14:08:46;98706.00;;;3.70
20289;BMP180;10303;51.960;8.372;2024-01-15T14:11:12;98710.00;;;3.60
20289;BMP180;10303;51.960;8.372;2024-01-15T14:13:38;98696.00;;;3.70
20289;BMP180;10303;51.960;8.372;2024-01-15T14:16:04;98712.00;;;3.60
20289;BMP180;10303;51.960;8.372;2024-01-15T14:18:31;98708.00;;;3.70
20289;BMP180;10303;51.960;8.372;2024-01-15T14:20:56;98706.00;;;3.70
20289;BMP180;10303;51.960;8.372;2024-01-15T14:23:22;98691.00;;;3.70